Terminal Aerodrome Forecast
Issued by NWS

Home | Current Version | Previous Version | Text Only | Print | Product List | Glossary On
Versions: 1 2 3 4 5 6 7 8 9 10 11 12 13 14 15 16 17 18 19 20 21
734
FTUS41 KAKQ 310544
TAFPHF
TAF
KPHF 310544Z 3106/0106 VRB03KT P6SM BKN008 OVC025
     FM310800 00000KT 2SM BR VCSH BKN004
     FM311300 06005KT P6SM -RA BKN004 BKN020 OVC040
     FM311700 08007KT P6SM SCT025 BKN120 OVC200
     FM010200 08003KT P6SM VCSH BKN010 BKN120 OVC200=

USA.gov is the U.S. government's official web portal to all federal, state and local government web resources and services.